| State | Missouri | Latest | Low (110 cfs) | |
| River | James River | Rating | Observed | Estimated |
| Updated | 2026-05-10 7:00 (1 hour ago) | Flood - The river is flooding. Obstacles can be treacherous or deadly. The river should be avoided at this stage for casual trips and definitely for the inexperienced. Trips should be attempted only with protective gear and equipment.Flood | 1400 | 1086 |
| Discharge | 110 cfs (median: 205 cfs) | High - The river is high and potentially dangerous, especially for the young and / or inexperienced. Normal stream obstacles are sometimes difficult to navigate. Extended distances can be attempted, but canoe travel may not be advisable.High | (none) | 421 |
| Height | 4.8 feet | Good - Conditions are ideal for a canoe or kayak. Boats typically will drag on fewer than one-quarter of riffles, if at all, and portages are unnecessary or rare. Normal float lengths can be attempted without a problem.Good | 150 | 185 |
| Trend | Steady (falling over 24 hours) | Low - River is low but can still be floated. Some riffles are okay but most come with significant dragging and might need a portage. Float lengths should be reduced to accommodate low flow, dragging, and portages.Low | 40 | 90 |
| USGS | USGS Site ( Duck Duck Go Maps) | Poor - River is too low to float comfortably. Most or all riffles will drag or must be portaged and some obstacles (such as slick shelf rock) cause undue problems. Avoid the river at this stage for casual paddling trips.Poor | (none) | 20 |
A total of 14 rows are displayed.
| Miles | 46.9 |
| Trips | 14 |
| People | 22 |
| Dates | 13 |
| Years | 7 |
| Months | 8 |
| Rows | 14 |
| Sources | 5 |
BLG - Bluegill
CCF - Channel Catfish
CP - Chain Pickerel
FWD - Freshwater Drum
GSF - Green Sunfish
KSB - Kentucky Spotted Bass
LMB - Largemouth Bass
LSF - Longear Sunfish
RB - Rock Bass / Goggle Eye
RSF - Redear Sunfish
RT - Rainbow Trout
SMB - Smallmouth Bass
WB - White Bass
WF - Whitefish
WL - WalleyeThe classic River Trips application is still available for use. It is updated with the new system using a data retrofit. It is no longer maintained. The original River Trips application is no longer updated (as of 1 Dec 2016) but can be checked for errors or for the condition of the data before it was converted to the new system.
| Observation | Height | Discharge | Maximum Discharge | Minimum Discharge | Mean Discharge | P05 | P10 | P20 | P25 | P50 (Median) | P75 | P80 | P90 | P95 |
|---|---|---|---|---|---|---|---|---|---|---|---|---|---|---|
| 2026-05-10 07:00 | 4.80 | 110 | 5450 (2006) | 10 (1981) | 417 | 39 | 46 | 75 | 87 | 205 | 433 | 618 | 851 | 1770 |
| 2026-05-10 06:00 | 4.80 | 110 | 5450 (2006) | 10 (1981) | 417 | 39 | 46 | 75 | 87 | 205 | 433 | 618 | 851 | 1770 |
| 2026-05-10 05:00 | 4.80 | 110 | 5450 (2006) | 10 (1981) | 417 | 39 | 46 | 75 | 87 | 205 | 433 | 618 | 851 | 1770 |
| 2026-05-10 04:00 | 4.80 | 110 | 5450 (2006) | 10 (1981) | 417 | 39 | 46 | 75 | 87 | 205 | 433 | 618 | 851 | 1770 |
| 2026-05-10 03:00 | 4.76 | 102 | 5450 (2006) | 10 (1981) | 417 | 39 | 46 | 75 | 87 | 205 | 433 | 618 | 851 | 1770 |
| 2026-05-10 02:00 | 4.72 | 95 | 5450 (2006) | 10 (1981) | 417 | 39 | 46 | 75 | 87 | 205 | 433 | 618 | 851 | 1770 |
| 2026-05-10 01:00 | 4.72 | 95 | 5450 (2006) | 10 (1981) | 417 | 39 | 46 | 75 | 87 | 205 | 433 | 618 | 851 | 1770 |
| 2026-05-10 00:00 | 4.73 | 97 | 5450 (2006) | 10 (1981) | 417 | 39 | 46 | 75 | 87 | 205 | 433 | 618 | 851 | 1770 |
| 2026-05-09 23:00 | 4.73 | 97 | 5450 (2006) | 10 (1981) | 417 | 39 | 46 | 75 | 87 | 205 | 433 | 618 | 851 | 1770 |
| 2026-05-09 22:00 | 4.73 | 97 | 5460 (1961) | 18 (1981) | 505 | 29 | 43 | 69 | 85 | 199 | 466 | 629 | 1130 | 2110 |
| 2026-05-09 21:00 | 4.74 | 99 | 5460 (1961) | 18 (1981) | 505 | 29 | 43 | 69 | 85 | 199 | 466 | 629 | 1130 | 2110 |
| 2026-05-09 20:00 | 4.74 | 99 | 5460 (1961) | 18 (1981) | 505 | 29 | 43 | 69 | 85 | 199 | 466 | 629 | 1130 | 2110 |
| 2026-05-09 19:00 | 4.74 | 99 | 5460 (1961) | 18 (1981) | 505 | 29 | 43 | 69 | 85 | 199 | 466 | 629 | 1130 | 2110 |
| 2026-05-09 18:00 | 4.75 | 101 | 5460 (1961) | 18 (1981) | 505 | 29 | 43 | 69 | 85 | 199 | 466 | 629 | 1130 | 2110 |
| 2026-05-09 17:00 | 4.75 | 101 | 5460 (1961) | 18 (1981) | 505 | 29 | 43 | 69 | 85 | 199 | 466 | 629 | 1130 | 2110 |
| 2026-05-09 16:00 | 4.75 | 101 | 5460 (1961) | 18 (1981) | 505 | 29 | 43 | 69 | 85 | 199 | 466 | 629 | 1130 | 2110 |
| 2026-05-09 15:00 | 4.76 | 102 | 5460 (1961) | 18 (1981) | 505 | 29 | 43 | 69 | 85 | 199 | 466 | 629 | 1130 | 2110 |
| 2026-05-09 14:00 | 4.76 | 102 | 5460 (1961) | 18 (1981) | 505 | 29 | 43 | 69 | 85 | 199 | 466 | 629 | 1130 | 2110 |
| 2026-05-09 13:00 | 4.77 | 104 | 5460 (1961) | 18 (1981) | 505 | 29 | 43 | 69 | 85 | 199 | 466 | 629 | 1130 | 2110 |
| 2026-05-09 12:00 | 4.77 | 104 | 5460 (1961) | 18 (1981) | 505 | 29 | 43 | 69 | 85 | 199 | 466 | 629 | 1130 | 2110 |
| 2026-05-09 11:00 | 4.78 | 106 | 5460 (1961) | 18 (1981) | 505 | 29 | 43 | 69 | 85 | 199 | 466 | 629 | 1130 | 2110 |
| 2026-05-09 10:00 | 4.78 | 106 | 5460 (1961) | 18 (1981) | 505 | 29 | 43 | 69 | 85 | 199 | 466 | 629 | 1130 | 2110 |
| 2026-05-09 09:00 | 4.81 | 112 | 5460 (1961) | 18 (1981) | 505 | 29 | 43 | 69 | 85 | 199 | 466 | 629 | 1130 | 2110 |
| 2026-05-09 08:00 | 4.86 | 122 | 5460 (1961) | 18 (1981) | 505 | 29 | 43 | 69 | 85 | 199 | 466 | 629 | 1130 | 2110 |
| 2026-05-09 07:00 | 4.87 | 124 | 5460 (1961) | 18 (1981) | 505 | 29 | 43 | 69 | 85 | 199 | 466 | 629 | 1130 | 2110 |
| 2026-05-09 06:00 | 4.87 | 124 | 5460 (1961) | 18 (1981) | 505 | 29 | 43 | 69 | 85 | 199 | 466 | 629 | 1130 | 2110 |
| 2026-05-09 05:00 | 4.85 | 120 | 5460 (1961) | 18 (1981) | 505 | 29 | 43 | 69 | 85 | 199 | 466 | 629 | 1130 | 2110 |
| 2026-05-09 04:00 | 4.85 | 120 | 5460 (1961) | 18 (1981) | 505 | 29 | 43 | 69 | 85 | 199 | 466 | 629 | 1130 | 2110 |
| 2026-05-09 03:00 | 4.85 | 120 | 5460 (1961) | 18 (1981) | 505 | 29 | 43 | 69 | 85 | 199 | 466 | 629 | 1130 | 2110 |
| 2026-05-09 02:00 | 4.85 | 120 | 5460 (1961) | 18 (1981) | 505 | 29 | 43 | 69 | 85 | 199 | 466 | 629 | 1130 | 2110 |
| 2026-05-09 01:00 | 4.83 | 116 | 5460 (1961) | 18 (1981) | 505 | 29 | 43 | 69 | 85 | 199 | 466 | 629 | 1130 | 2110 |
| 2026-05-09 00:00 | 4.83 | 116 | 5460 (1961) | 18 (1981) | 505 | 29 | 43 | 69 | 85 | 199 | 466 | 629 | 1130 | 2110 |
| 2026-05-08 23:00 | 4.82 | 114 | 5460 (1961) | 18 (1981) | 505 | 29 | 43 | 69 | 85 | 199 | 466 | 629 | 1130 | 2110 |
| 2026-05-08 22:00 | 4.81 | 112 | 13500 (2002) | 16 (1981) | 777 | 29 | 46 | 65 | 90 | 214 | 516 | 639 | 1590 | 3180 |
| 2026-05-08 21:00 | 4.81 | 112 | 13500 (2002) | 16 (1981) | 777 | 29 | 46 | 65 | 90 | 214 | 516 | 639 | 1590 | 3180 |
| 2026-05-08 20:00 | 4.82 | 114 | 13500 (2002) | 16 (1981) | 777 | 29 | 46 | 65 | 90 | 214 | 516 | 639 | 1590 | 3180 |
| 2026-05-08 19:00 | 4.82 | 114 | 13500 (2002) | 16 (1981) | 777 | 29 | 46 | 65 | 90 | 214 | 516 | 639 | 1590 | 3180 |
| 2026-05-08 18:00 | 4.82 | 114 | 13500 (2002) | 16 (1981) | 777 | 29 | 46 | 65 | 90 | 214 | 516 | 639 | 1590 | 3180 |
| 2026-05-08 17:00 | 4.83 | 116 | 13500 (2002) | 16 (1981) | 777 | 29 | 46 | 65 | 90 | 214 | 516 | 639 | 1590 | 3180 |
| 2026-05-08 16:00 | 4.83 | 116 | 13500 (2002) | 16 (1981) | 777 | 29 | 46 | 65 | 90 | 214 | 516 | 639 | 1590 | 3180 |
| 2026-05-08 15:00 | 4.84 | 118 | 13500 (2002) | 16 (1981) | 777 | 29 | 46 | 65 | 90 | 214 | 516 | 639 | 1590 | 3180 |
| 2026-05-08 14:00 | 4.84 | 118 | 13500 (2002) | 16 (1981) | 777 | 29 | 46 | 65 | 90 | 214 | 516 | 639 | 1590 | 3180 |
| 2026-05-08 13:00 | 4.84 | 118 | 13500 (2002) | 16 (1981) | 777 | 29 | 46 | 65 | 90 | 214 | 516 | 639 | 1590 | 3180 |
| 2026-05-08 12:00 | 4.85 | 120 | 13500 (2002) | 16 (1981) | 777 | 29 | 46 | 65 | 90 | 214 | 516 | 639 | 1590 | 3180 |
| 2026-05-08 11:00 | 4.85 | 120 | 13500 (2002) | 16 (1981) | 777 | 29 | 46 | 65 | 90 | 214 | 516 | 639 | 1590 | 3180 |
| 2026-05-08 10:00 | 4.85 | 120 | 13500 (2002) | 16 (1981) | 777 | 29 | 46 | 65 | 90 | 214 | 516 | 639 | 1590 | 3180 |
| 2026-05-08 09:00 | 4.86 | 122 | 13500 (2002) | 16 (1981) | 777 | 29 | 46 | 65 | 90 | 214 | 516 | 639 | 1590 | 3180 |
| 2026-05-08 08:00 | 4.87 | 124 | 13500 (2002) | 16 (1981) | 777 | 29 | 46 | 65 | 90 | 214 | 516 | 639 | 1590 | 3180 |
| 2026-05-08 07:00 | 4.87 | 124 | 13500 (2002) | 16 (1981) | 777 | 29 | 46 | 65 | 90 | 214 | 516 | 639 | 1590 | 3180 |
| 2026-05-08 06:00 | 4.87 | 124 | 13500 (2002) | 16 (1981) | 777 | 29 | 46 | 65 | 90 | 214 | 516 | 639 | 1590 | 3180 |
| 2026-05-08 05:00 | 4.88 | 126 | 13500 (2002) | 16 (1981) | 777 | 29 | 46 | 65 | 90 | 214 | 516 | 639 | 1590 | 3180 |
| 2026-05-08 04:00 | 4.88 | 126 | 13500 (2002) | 16 (1981) | 777 | 29 | 46 | 65 | 90 | 214 | 516 | 639 | 1590 | 3180 |
| 2026-05-08 03:00 | 4.88 | 126 | 13500 (2002) | 16 (1981) | 777 | 29 | 46 | 65 | 90 | 214 | 516 | 639 | 1590 | 3180 |
| 2026-05-08 02:00 | 4.89 | 128 | 13500 (2002) | 16 (1981) | 777 | 29 | 46 | 65 | 90 | 214 | 516 | 639 | 1590 | 3180 |
| 2026-05-08 01:00 | 4.92 | 135 | 13500 (2002) | 16 (1981) | 777 | 29 | 46 | 65 | 90 | 214 | 516 | 639 | 1590 | 3180 |
| 2026-05-08 00:00 | 4.92 | 135 | 13500 (2002) | 16 (1981) | 777 | 29 | 46 | 65 | 90 | 214 | 516 | 639 | 1590 | 3180 |
| 2026-05-07 23:00 | 4.93 | 137 | 13500 (2002) | 16 (1981) | 777 | 29 | 46 | 65 | 90 | 214 | 516 | 639 | 1590 | 3180 |
| 2026-05-07 22:00 | 4.93 | 137 | 8360 (1994) | 20 (1981) | 630 | 31 | 50 | 69 | 86 | 214 | 498 | 610 | 1050 | 4710 |
| 2026-05-07 21:00 | 4.93 | 137 | 8360 (1994) | 20 (1981) | 630 | 31 | 50 | 69 | 86 | 214 | 498 | 610 | 1050 | 4710 |
| 2026-05-07 20:00 | 4.93 | 137 | 8360 (1994) | 20 (1981) | 630 | 31 | 50 | 69 | 86 | 214 | 498 | 610 | 1050 | 4710 |
| 2026-05-07 19:00 | 4.94 | 139 | 8360 (1994) | 20 (1981) | 630 | 31 | 50 | 69 | 86 | 214 | 498 | 610 | 1050 | 4710 |
| 2026-05-07 18:00 | 4.94 | 139 | 8360 (1994) | 20 (1981) | 630 | 31 | 50 | 69 | 86 | 214 | 498 | 610 | 1050 | 4710 |
| 2026-05-07 17:00 | 4.95 | 141 | 8360 (1994) | 20 (1981) | 630 | 31 | 50 | 69 | 86 | 214 | 498 | 610 | 1050 | 4710 |
| 2026-05-07 16:00 | 4.95 | 141 | 8360 (1994) | 20 (1981) | 630 | 31 | 50 | 69 | 86 | 214 | 498 | 610 | 1050 | 4710 |
| 2026-05-07 15:00 | 4.96 | 144 | 8360 (1994) | 20 (1981) | 630 | 31 | 50 | 69 | 86 | 214 | 498 | 610 | 1050 | 4710 |
| 2026-05-07 14:00 | 4.96 | 144 | 8360 (1994) | 20 (1981) | 630 | 31 | 50 | 69 | 86 | 214 | 498 | 610 | 1050 | 4710 |
| 2026-05-07 13:00 | 4.97 | 146 | 8360 (1994) | 20 (1981) | 630 | 31 | 50 | 69 | 86 | 214 | 498 | 610 | 1050 | 4710 |
| 2026-05-07 12:00 | 4.97 | 146 | 8360 (1994) | 20 (1981) | 630 | 31 | 50 | 69 | 86 | 214 | 498 | 610 | 1050 | 4710 |
| 2026-05-07 11:00 | 4.97 | 146 | 8360 (1994) | 20 (1981) | 630 | 31 | 50 | 69 | 86 | 214 | 498 | 610 | 1050 | 4710 |
| 2026-05-07 10:00 | 4.98 | 148 | 8360 (1994) | 20 (1981) | 630 | 31 | 50 | 69 | 86 | 214 | 498 | 610 | 1050 | 4710 |
| 2026-05-07 09:00 | 4.98 | 148 | 8360 (1994) | 20 (1981) | 630 | 31 | 50 | 69 | 86 | 214 | 498 | 610 | 1050 | 4710 |
| 2026-05-07 08:00 | 4.99 | 151 | 8360 (1994) | 20 (1981) | 630 | 31 | 50 | 69 | 86 | 214 | 498 | 610 | 1050 | 4710 |
| 2026-05-07 07:00 | 4.99 | 151 | 8360 (1994) | 20 (1981) | 630 | 31 | 50 | 69 | 86 | 214 | 498 | 610 | 1050 | 4710 |
| 2026-05-07 06:00 | 4.99 | 151 | 8360 (1994) | 20 (1981) | 630 | 31 | 50 | 69 | 86 | 214 | 498 | 610 | 1050 | 4710 |
| 2026-05-07 05:00 | 4.98 | 148 | 8360 (1994) | 20 (1981) | 630 | 31 | 50 | 69 | 86 | 214 | 498 | 610 | 1050 | 4710 |
| 2026-05-07 04:00 | 4.97 | 146 | 8360 (1994) | 20 (1981) | 630 | 31 | 50 | 69 | 86 | 214 | 498 | 610 | 1050 | 4710 |
| 2026-05-07 03:00 | 4.98 | 148 | 8360 (1994) | 20 (1981) | 630 | 31 | 50 | 69 | 86 | 214 | 498 | 610 | 1050 | 4710 |
| 2026-05-07 02:00 | 4.99 | 151 | 8360 (1994) | 20 (1981) | 630 | 31 | 50 | 69 | 86 | 214 | 498 | 610 | 1050 | 4710 |
| 2026-05-07 01:00 | 5.02 | 158 | 8360 (1994) | 20 (1981) | 630 | 31 | 50 | 69 | 86 | 214 | 498 | 610 | 1050 | 4710 |
| 2026-05-07 00:00 | 5.02 | 158 | 8360 (1994) | 20 (1981) | 630 | 31 | 50 | 69 | 86 | 214 | 498 | 610 | 1050 | 4710 |
| 2026-05-06 23:00 | 5.02 | 158 | 8360 (1994) | 20 (1981) | 630 | 31 | 50 | 69 | 86 | 214 | 498 | 610 | 1050 | 4710 |
| 2026-05-06 22:00 | 5.03 | 161 | 7140 (2022) | 24 (1981) | 488 | 33 | 50 | 77 | 92 | 216 | 485 | 592 | 856 | 1770 |
| 2026-05-06 21:00 | 5.03 | 161 | 7140 (2022) | 24 (1981) | 488 | 33 | 50 | 77 | 92 | 216 | 485 | 592 | 856 | 1770 |
| 2026-05-06 20:00 | 5.03 | 161 | 7140 (2022) | 24 (1981) | 488 | 33 | 50 | 77 | 92 | 216 | 485 | 592 | 856 | 1770 |
| 2026-05-06 19:00 | 5.04 | 163 | 7140 (2022) | 24 (1981) | 488 | 33 | 50 | 77 | 92 | 216 | 485 | 592 | 856 | 1770 |
| 2026-05-06 18:00 | 5.04 | 163 | 7140 (2022) | 24 (1981) | 488 | 33 | 50 | 77 | 92 | 216 | 485 | 592 | 856 | 1770 |
| 2026-05-06 17:00 | 5.05 | 166 | 7140 (2022) | 24 (1981) | 488 | 33 | 50 | 77 | 92 | 216 | 485 | 592 | 856 | 1770 |
| 2026-05-06 16:00 | 5.05 | 166 | 7140 (2022) | 24 (1981) | 488 | 33 | 50 | 77 | 92 | 216 | 485 | 592 | 856 | 1770 |
| 2026-05-06 15:00 | 5.05 | 166 | 7140 (2022) | 24 (1981) | 488 | 33 | 50 | 77 | 92 | 216 | 485 | 592 | 856 | 1770 |
| 2026-05-06 14:00 | 5.06 | 168 | 7140 (2022) | 24 (1981) | 488 | 33 | 50 | 77 | 92 | 216 | 485 | 592 | 856 | 1770 |
| 2026-05-06 13:00 | 5.06 | 168 | 7140 (2022) | 24 (1981) | 488 | 33 | 50 | 77 | 92 | 216 | 485 | 592 | 856 | 1770 |
| 2026-05-06 12:00 | 5.07 | 171 | 7140 (2022) | 24 (1981) | 488 | 33 | 50 | 77 | 92 | 216 | 485 | 592 | 856 | 1770 |
| 2026-05-06 11:00 | 5.07 | 171 | 7140 (2022) | 24 (1981) | 488 | 33 | 50 | 77 | 92 | 216 | 485 | 592 | 856 | 1770 |
| 2026-05-06 10:00 | 5.08 | 173 | 7140 (2022) | 24 (1981) | 488 | 33 | 50 | 77 | 92 | 216 | 485 | 592 | 856 | 1770 |
| 2026-05-06 09:00 | 5.08 | 173 | 7140 (2022) | 24 (1981) | 488 | 33 | 50 | 77 | 92 | 216 | 485 | 592 | 856 | 1770 |
| 2026-05-06 08:00 | 5.09 | 176 | 7140 (2022) | 24 (1981) | 488 | 33 | 50 | 77 | 92 | 216 | 485 | 592 | 856 | 1770 |
| 2026-05-06 07:00 | 5.09 | 176 | 7140 (2022) | 24 (1981) | 488 | 33 | 50 | 77 | 92 | 216 | 485 | 592 | 856 | 1770 |
| 2026-05-06 06:00 | 5.09 | 176 | 7140 (2022) | 24 (1981) | 488 | 33 | 50 | 77 | 92 | 216 | 485 | 592 | 856 | 1770 |
| 2026-05-06 05:00 | 5.10 | 179 | 7140 (2022) | 24 (1981) | 488 | 33 | 50 | 77 | 92 | 216 | 485 | 592 | 856 | 1770 |
| 2026-05-06 04:00 | 5.10 | 179 | 7140 (2022) | 24 (1981) | 488 | 33 | 50 | 77 | 92 | 216 | 485 | 592 | 856 | 1770 |
| 2026-05-06 03:00 | 5.11 | 181 | 7140 (2022) | 24 (1981) | 488 | 33 | 50 | 77 | 92 | 216 | 485 | 592 | 856 | 1770 |
| 2026-05-06 02:00 | 5.11 | 181 | 7140 (2022) | 24 (1981) | 488 | 33 | 50 | 77 | 92 | 216 | 485 | 592 | 856 | 1770 |
| 2026-05-06 01:00 | 5.11 | 181 | 7140 (2022) | 24 (1981) | 488 | 33 | 50 | 77 | 92 | 216 | 485 | 592 | 856 | 1770 |
| 2026-05-06 00:00 | 5.12 | 184 | 7140 (2022) | 24 (1981) | 488 | 33 | 50 | 77 | 92 | 216 | 485 | 592 | 856 | 1770 |
| 2026-05-05 23:00 | 5.12 | 184 | 7140 (2022) | 24 (1981) | 488 | 33 | 50 | 77 | 92 | 216 | 485 | 592 | 856 | 1770 |
| 2026-05-05 22:00 | 5.13 | 187 | 13400 (2022) | 28 (1981) | 666 | 35 | 54 | 82 | 98 | 226 | 557 | 629 | 1150 | 2870 |
| 2026-05-05 21:00 | 5.13 | 187 | 13400 (2022) | 28 (1981) | 666 | 35 | 54 | 82 | 98 | 226 | 557 | 629 | 1150 | 2870 |
| 2026-05-05 20:00 | 5.13 | 187 | 13400 (2022) | 28 (1981) | 666 | 35 | 54 | 82 | 98 | 226 | 557 | 629 | 1150 | 2870 |
| 2026-05-05 19:00 | 5.14 | 190 | 13400 (2022) | 28 (1981) | 666 | 35 | 54 | 82 | 98 | 226 | 557 | 629 | 1150 | 2870 |
| 2026-05-05 18:00 | 5.14 | 190 | 13400 (2022) | 28 (1981) | 666 | 35 | 54 | 82 | 98 | 226 | 557 | 629 | 1150 | 2870 |
| 2026-05-05 17:00 | 5.15 | 193 | 13400 (2022) | 28 (1981) | 666 | 35 | 54 | 82 | 98 | 226 | 557 | 629 | 1150 | 2870 |
| 2026-05-05 16:00 | 5.15 | 193 | 13400 (2022) | 28 (1981) | 666 | 35 | 54 | 82 | 98 | 226 | 557 | 629 | 1150 | 2870 |
| 2026-05-05 15:00 | 5.16 | 195 | 13400 (2022) | 28 (1981) | 666 | 35 | 54 | 82 | 98 | 226 | 557 | 629 | 1150 | 2870 |
| 2026-05-05 14:00 | 5.16 | 195 | 13400 (2022) | 28 (1981) | 666 | 35 | 54 | 82 | 98 | 226 | 557 | 629 | 1150 | 2870 |
| 2026-05-05 13:00 | 5.17 | 198 | 13400 (2022) | 28 (1981) | 666 | 35 | 54 | 82 | 98 | 226 | 557 | 629 | 1150 | 2870 |
| 2026-05-05 12:00 | 5.17 | 198 | 13400 (2022) | 28 (1981) | 666 | 35 | 54 | 82 | 98 | 226 | 557 | 629 | 1150 | 2870 |
| 2026-05-05 11:00 | 5.17 | 198 | 13400 (2022) | 28 (1981) | 666 | 35 | 54 | 82 | 98 | 226 | 557 | 629 | 1150 | 2870 |
| 2026-05-05 10:00 | 5.18 | 201 | 13400 (2022) | 28 (1981) | 666 | 35 | 54 | 82 | 98 | 226 | 557 | 629 | 1150 | 2870 |
| 2026-05-05 09:00 | 5.18 | 201 | 13400 (2022) | 28 (1981) | 666 | 35 | 54 | 82 | 98 | 226 | 557 | 629 | 1150 | 2870 |
| 2026-05-05 08:00 | 5.17 | 198 | 13400 (2022) | 28 (1981) | 666 | 35 | 54 | 82 | 98 | 226 | 557 | 629 | 1150 | 2870 |
| 2026-05-05 07:00 | 5.17 | 198 | 13400 (2022) | 28 (1981) | 666 | 35 | 54 | 82 | 98 | 226 | 557 | 629 | 1150 | 2870 |
| 2026-05-05 06:00 | 5.18 | 201 | 13400 (2022) | 28 (1981) | 666 | 35 | 54 | 82 | 98 | 226 | 557 | 629 | 1150 | 2870 |
| 2026-05-05 05:00 | 5.18 | 201 | 13400 (2022) | 28 (1981) | 666 | 35 | 54 | 82 | 98 | 226 | 557 | 629 | 1150 | 2870 |
| 2026-05-05 04:00 | 5.19 | 204 | 13400 (2022) | 28 (1981) | 666 | 35 | 54 | 82 | 98 | 226 | 557 | 629 | 1150 | 2870 |
| 2026-05-05 03:00 | 5.21 | 210 | 13400 (2022) | 28 (1981) | 666 | 35 | 54 | 82 | 98 | 226 | 557 | 629 | 1150 | 2870 |
| 2026-05-05 02:00 | 5.21 | 210 | 13400 (2022) | 28 (1981) | 666 | 35 | 54 | 82 | 98 | 226 | 557 | 629 | 1150 | 2870 |
| 2026-05-05 01:00 | 5.22 | 213 | 13400 (2022) | 28 (1981) | 666 | 35 | 54 | 82 | 98 | 226 | 557 | 629 | 1150 | 2870 |
| 2026-05-05 00:00 | 5.22 | 213 | 13400 (2022) | 28 (1981) | 666 | 35 | 54 | 82 | 98 | 226 | 557 | 629 | 1150 | 2870 |
| 2026-05-04 23:00 | 5.23 | 216 | 13400 (2022) | 28 (1981) | 666 | 35 | 54 | 82 | 98 | 226 | 557 | 629 | 1150 | 2870 |
| 2026-05-04 22:00 | 5.23 | 216 | 5690 (2017) | 33 (2000) | 584 | 39 | 59 | 76 | 105 | 225 | 699 | 818 | 1450 | 2720 |
| 2026-05-04 21:00 | 5.24 | 219 | 5690 (2017) | 33 (2000) | 584 | 39 | 59 | 76 | 105 | 225 | 699 | 818 | 1450 | 2720 |
| 2026-05-04 20:00 | 5.24 | 219 | 5690 (2017) | 33 (2000) | 584 | 39 | 59 | 76 | 105 | 225 | 699 | 818 | 1450 | 2720 |
| 2026-05-04 19:00 | 5.25 | 222 | 5690 (2017) | 33 (2000) | 584 | 39 | 59 | 76 | 105 | 225 | 699 | 818 | 1450 | 2720 |
| 2026-05-04 18:00 | 5.25 | 222 | 5690 (2017) | 33 (2000) | 584 | 39 | 59 | 76 | 105 | 225 | 699 | 818 | 1450 | 2720 |
| 2026-05-04 17:00 | 5.24 | 219 | 5690 (2017) | 33 (2000) | 584 | 39 | 59 | 76 | 105 | 225 | 699 | 818 | 1450 | 2720 |
| 2026-05-04 16:00 | 5.24 | 219 | 5690 (2017) | 33 (2000) | 584 | 39 | 59 | 76 | 105 | 225 | 699 | 818 | 1450 | 2720 |
| 2026-05-04 15:00 | 5.25 | 222 | 5690 (2017) | 33 (2000) | 584 | 39 | 59 | 76 | 105 | 225 | 699 | 818 | 1450 | 2720 |
| 2026-05-04 14:00 | 5.26 | 225 | 5690 (2017) | 33 (2000) | 584 | 39 | 59 | 76 | 105 | 225 | 699 | 818 | 1450 | 2720 |
| 2026-05-04 13:00 | 5.27 | 229 | 5690 (2017) | 33 (2000) | 584 | 39 | 59 | 76 | 105 | 225 | 699 | 818 | 1450 | 2720 |
| 2026-05-04 12:00 | 5.27 | 229 | 5690 (2017) | 33 (2000) | 584 | 39 | 59 | 76 | 105 | 225 | 699 | 818 | 1450 | 2720 |
| 2026-05-04 11:00 | 5.28 | 232 | 5690 (2017) | 33 (2000) | 584 | 39 | 59 | 76 | 105 | 225 | 699 | 818 | 1450 | 2720 |
| 2026-05-04 10:00 | 5.29 | 235 | 5690 (2017) | 33 (2000) | 584 | 39 | 59 | 76 | 105 | 225 | 699 | 818 | 1450 | 2720 |
| 2026-05-04 09:00 | 5.28 | 232 | 5690 (2017) | 33 (2000) | 584 | 39 | 59 | 76 | 105 | 225 | 699 | 818 | 1450 | 2720 |
| 2026-05-04 08:00 | 5.29 | 235 | 5690 (2017) | 33 (2000) | 584 | 39 | 59 | 76 | 105 | 225 | 699 | 818 | 1450 | 2720 |
| 2026-05-04 07:00 | 5.31 | 242 | 5690 (2017) | 33 (2000) | 584 | 39 | 59 | 76 | 105 | 225 | 699 | 818 | 1450 | 2720 |
| 2026-05-04 06:00 | 5.33 | 248 | 5690 (2017) | 33 (2000) | 584 | 39 | 59 | 76 | 105 | 225 | 699 | 818 | 1450 | 2720 |
| 2026-05-04 05:00 | 5.34 | 252 | 5690 (2017) | 33 (2000) | 584 | 39 | 59 | 76 | 105 | 225 | 699 | 818 | 1450 | 2720 |
| 2026-05-04 04:00 | 5.34 | 252 | 5690 (2017) | 33 (2000) | 584 | 39 | 59 | 76 | 105 | 225 | 699 | 818 | 1450 | 2720 |
| 2026-05-04 03:00 | 5.35 | 255 | 5690 (2017) | 33 (2000) | 584 | 39 | 59 | 76 | 105 | 225 | 699 | 818 | 1450 | 2720 |
| 2026-05-04 02:00 | 5.35 | 255 | 5690 (2017) | 33 (2000) | 584 | 39 | 59 | 76 | 105 | 225 | 699 | 818 | 1450 | 2720 |
| 2026-05-04 01:00 | 5.36 | 258 | 5690 (2017) | 33 (2000) | 584 | 39 | 59 | 76 | 105 | 225 | 699 | 818 | 1450 | 2720 |
| 2026-05-04 00:00 | 5.37 | 262 | 5690 (2017) | 33 (2000) | 584 | 39 | 59 | 76 | 105 | 225 | 699 | 818 | 1450 | 2720 |
| 2026-05-03 23:00 | 5.37 | 262 | 5690 (2017) | 33 (2000) | 584 | 39 | 59 | 76 | 105 | 225 | 699 | 818 | 1450 | 2720 |
| 2026-05-03 22:00 | 5.37 | 262 | 4430 (1990) | 27 (1963) | 497 | 41 | 60 | 85 | 114 | 220 | 593 | 800 | 1080 | 2140 |
| 2026-05-03 21:00 | 5.38 | 265 | 4430 (1990) | 27 (1963) | 497 | 41 | 60 | 85 | 114 | 220 | 593 | 800 | 1080 | 2140 |
| 2026-05-03 20:00 | 5.39 | 269 | 4430 (1990) | 27 (1963) | 497 | 41 | 60 | 85 | 114 | 220 | 593 | 800 | 1080 | 2140 |
| 2026-05-03 19:00 | 5.39 | 269 | 4430 (1990) | 27 (1963) | 497 | 41 | 60 | 85 | 114 | 220 | 593 | 800 | 1080 | 2140 |
| 2026-05-03 18:00 | 5.40 | 273 | 4430 (1990) | 27 (1963) | 497 | 41 | 60 | 85 | 114 | 220 | 593 | 800 | 1080 | 2140 |
| 2026-05-03 17:00 | 5.41 | 276 | 4430 (1990) | 27 (1963) | 497 | 41 | 60 | 85 | 114 | 220 | 593 | 800 | 1080 | 2140 |
| 2026-05-03 16:00 | 5.42 | 280 | 4430 (1990) | 27 (1963) | 497 | 41 | 60 | 85 | 114 | 220 | 593 | 800 | 1080 | 2140 |
| 2026-05-03 15:00 | 5.42 | 280 | 4430 (1990) | 27 (1963) | 497 | 41 | 60 | 85 | 114 | 220 | 593 | 800 | 1080 | 2140 |
| 2026-05-03 14:00 | 5.43 | 283 | 4430 (1990) | 27 (1963) | 497 | 41 | 60 | 85 | 114 | 220 | 593 | 800 | 1080 | 2140 |
| 2026-05-03 13:00 | 5.44 | 287 | 4430 (1990) | 27 (1963) | 497 | 41 | 60 | 85 | 114 | 220 | 593 | 800 | 1080 | 2140 |
| 2026-05-03 12:00 | 5.45 | 291 | 4430 (1990) | 27 (1963) | 497 | 41 | 60 | 85 | 114 | 220 | 593 | 800 | 1080 | 2140 |
| 2026-05-03 11:00 | 5.47 | 298 | 4430 (1990) | 27 (1963) | 497 | 41 | 60 | 85 | 114 | 220 | 593 | 800 | 1080 | 2140 |
| 2026-05-03 10:00 | 5.48 | 302 | 4430 (1990) | 27 (1963) | 497 | 41 | 60 | 85 | 114 | 220 | 593 | 800 | 1080 | 2140 |
| 2026-05-03 09:00 | 5.49 | 306 | 4430 (1990) | 27 (1963) | 497 | 41 | 60 | 85 | 114 | 220 | 593 | 800 | 1080 | 2140 |
| 2026-05-03 08:00 | 5.50 | 310 | 4430 (1990) | 27 (1963) | 497 | 41 | 60 | 85 | 114 | 220 | 593 | 800 | 1080 | 2140 |
| 2026-05-03 07:00 | 5.49 | 306 | 4430 (1990) | 27 (1963) | 497 | 41 | 60 | 85 | 114 | 220 | 593 | 800 | 1080 | 2140 |
| 2026-05-03 06:00 | 5.49 | 306 | 4430 (1990) | 27 (1963) | 497 | 41 | 60 | 85 | 114 | 220 | 593 | 800 | 1080 | 2140 |
| 2026-05-03 05:00 | 5.50 | 310 | 4430 (1990) | 27 (1963) | 497 | 41 | 60 | 85 | 114 | 220 | 593 | 800 | 1080 | 2140 |
| 2026-05-03 04:00 | 5.51 | 314 | 4430 (1990) | 27 (1963) | 497 | 41 | 60 | 85 | 114 | 220 | 593 | 800 | 1080 | 2140 |
| 2026-05-03 03:00 | 5.52 | 318 | 4430 (1990) | 27 (1963) | 497 | 41 | 60 | 85 | 114 | 220 | 593 | 800 | 1080 | 2140 |
| 2026-05-03 02:00 | 5.52 | 318 | 4430 (1990) | 27 (1963) | 497 | 41 | 60 | 85 | 114 | 220 | 593 | 800 | 1080 | 2140 |
| 2026-05-03 01:00 | 5.53 | 322 | 4430 (1990) | 27 (1963) | 497 | 41 | 60 | 85 | 114 | 220 | 593 | 800 | 1080 | 2140 |
| 2026-05-03 00:00 | 5.54 | 326 | 4430 (1990) | 27 (1963) | 497 | 41 | 60 | 85 | 114 | 220 | 593 | 800 | 1080 | 2140 |
| 2026-05-02 23:00 | 5.54 | 326 | 4430 (1990) | 27 (1963) | 497 | 41 | 60 | 85 | 114 | 220 | 593 | 800 | 1080 | 2140 |
A total of 177 rows are displayed for years 1956 through 2025.